Time;durP1;ratioP1;P1;durP2;ratioP2;P2;SDS_P1;SDS_P2;PMS_P1;PMS_P2;Temp;Humidity;BMP_temperature;BMP_pressure;BME280_temperature;BME280_humidity;BME280_pressure;Samples;Min_cycle;Max_cycle;Signal;HPM_P1;HPM_P2
2021/05/30 00:01:57;;;;;;;3.33;2.70;;;16.70;70.60;;;;;;5134779;27;20617;-57
2021/05/30 00:04:22;;;;;;;4.32;2.80;;;16.70;70.60;;;;;;5132760;27;20492;-53
2021/05/30 00:06:48;;;;;;;3.70;2.90;;;16.60;70.60;;;;;;5133185;27;20113;-56
2021/05/30 00:09:14;;;;;;;2.97;2.70;;;16.60;70.60;;;;;;5128463;27;20044;-54
2021/05/30 00:11:40;;;;;;;3.35;2.75;;;16.60;70.60;;;;;;5114424;28;20039;-53
2021/05/30 00:14:07;;;;;;;3.85;3.20;;;16.60;70.60;;;;;;5118617;27;20142;-52
2021/05/30 00:16:33;;;;;;;5.18;3.13;;;16.60;70.60;;;;;;5129511;27;20035;-52
2021/05/30 00:19:00;;;;;;;2.90;2.67;;;16.60;70.60;;;;;;5115782;27;20096;-54
2021/05/30 00:21:26;;;;;;;2.97;2.53;;;16.60;70.60;;;;;;5133126;27;20070;-54
2021/05/30 00:23:52;;;;;;;3.53;2.63;;;16.60;70.60;;;;;;5132768;27;20153;-54
2021/05/30 00:26:18;;;;;;;3.38;2.40;;;16.60;70.60;;;;;;5134368;27;20134;-53
2021/05/30 00:28:44;;;;;;;2.80;2.60;;;16.50;70.50;;;;;;5132747;27;20110;-54
2021/05/30 00:31:11;;;;;;;4.25;2.75;;;16.70;70.70;;;;;;5131970;27;20493;-56
2021/05/30 00:33:37;;;;;;;2.70;2.45;;;16.60;70.60;;;;;;5113625;28;20111;-56
2021/05/30 00:36:03;;;;;;;3.75;2.75;;;16.60;70.60;;;;;;5114522;27;20139;-54
2021/05/30 00:38:29;;;;;;;2.72;2.45;;;16.60;70.60;;;;;;5126485;27;20039;-54
2021/05/30 00:40:55;;;;;;;3.90;3.00;;;16.60;70.60;;;;;;5113689;28;20055;-53
2021/05/30 00:43:21;;;;;;;3.08;2.80;;;16.60;70.60;;;;;;5118426;27;20096;-56
2021/05/30 00:45:48;;;;;;;2.90;2.58;;;16.60;70.60;;;;;;5131912;27;20122;-54
2021/05/30 00:48:15;;;;;;;2.72;2.47;;;16.60;70.60;;;;;;5113179;28;20039;-56
2021/05/30 00:50:41;;;;;;;3.60;2.95;;;16.60;70.60;;;;;;5114541;27;20483;-56
2021/05/30 00:53:07;;;;;;;3.35;3.05;;;16.60;70.60;;;;;;5131114;27;20127;-56
2021/05/30 00:55:33;;;;;;;3.88;2.72;;;16.60;70.70;;;;;;5133168;27;20122;-55
2021/05/30 00:57:58;;;;;;;4.28;2.70;;;16.60;70.70;;;;;;5133813;27;20042;-54
2021/05/30 01:00:25;;;;;;;2.80;2.55;;;16.60;70.70;;;;;;5131871;27;20384;-54
2021/05/30 01:02:51;;;;;;;3.08;2.75;;;16.60;70.70;;;;;;5116999;27;20047;-55
2021/05/30 01:05:17;;;;;;;3.90;2.78;;;16.60;70.70;;;;;;5125448;27;20050;-53
2021/05/30 01:07:46;;;;;;;3.00;2.78;;;16.60;70.70;;;;;;5113127;28;20051;-54
2021/05/30 01:10:32;;;;;;;2.80;2.53;;;16.60;70.70;;;;;;5113062;28;20480;-54
2021/05/30 01:12:58;;;;;;;;;;;16.60;70.70;;;;;;5113304;28;20403;-54
2021/05/30 01:15:26;;;;;;;6.28;3.08;;;16.60;70.70;;;;;;5113013;28;19920;-54
2021/05/30 01:17:53;;;;;;;3.72;2.90;;;16.50;70.70;;;;;;5127079;27;20122;-55
2021/05/30 01:20:19;;;;;;;4.57;2.65;;;16.50;70.70;;;;;;5133174;27;20047;-54
2021/05/30 01:22:46;;;;;;;2.97;2.65;;;16.60;70.70;;;;;;5125761;27;20505;-54
2021/05/30 01:25:17;;;;;;;3.03;2.70;;;16.50;70.70;;;;;;5112833;28;20051;-53
2021/05/30 01:27:43;;;;;;;3.08;2.75;;;16.60;70.70;;;;;;5122262;27;20050;-51
2021/05/30 01:30:11;;;;;;;3.42;3.10;;;16.60;70.70;;;;;;5131537;27;20047;-53
2021/05/30 01:32:38;;;;;;;3.97;2.80;;;16.50;70.70;;;;;;5132894;27;20043;-53
2021/05/30 01:35:05;;;;;;;4.80;3.03;;;16.60;70.80;;;;;;5133188;27;20406;-53
2021/05/30 01:37:31;;;;;;;3.85;3.00;;;16.60;70.70;;;;;;5131677;27;20049;-55
2021/05/30 01:39:57;;;;;;;3.25;2.90;;;16.50;70.70;;;;;;5131408;27;20047;-55
2021/05/30 01:42:23;;;;;;;4.13;2.88;;;16.50;70.70;;;;;;5121010;27;20543;-55
2021/05/30 01:44:48;;;;;;;3.55;3.08;;;16.60;70.70;;;;;;5131221;28;20411;-56
2021/05/30 01:47:14;;;;;;;3.22;2.92;;;16.60;70.70;;;;;;5132744;28;20115;-54
2021/05/30 01:49:41;;;;;;;3.47;2.78;;;16.50;70.70;;;;;;5116222;28;20480;-54
2021/05/30 01:52:07;;;;;;;3.60;2.90;;;16.50;70.70;;;;;;5121665;28;20456;-54
2021/05/30 01:54:35;;;;;;;3.95;2.78;;;16.50;70.70;;;;;;5113619;28;20047;-53
2021/05/30 01:57:07;;;;;;;3.75;3.00;;;16.50;70.70;;;;;;5112612;28;20054;-54
2021/05/30 01:59:33;;;;;;;3.30;3.00;;;16.50;70.70;;;;;;5120098;28;20559;-52
2021/05/30 02:02:00;;;;;;;3.92;2.80;;;16.50;70.70;;;;;;5115911;28;20395;-54
2021/05/30 02:04:38;;;;;;;4.20;3.30;;;16.50;71.40;;;;;;5111764;28;20062;-54
2021/05/30 02:07:04;;;;;;;3.22;2.92;;;16.50;70.70;;;;;;5112710;28;20039;-54
2021/05/30 02:09:32;;;;;;;3.00;2.60;;;16.50;70.70;;;;;;5112416;28;20075;-54
2021/05/30 02:11:58;;;;;;;2.85;2.53;;;16.50;70.80;;;;;;5113637;28;20047;-54
2021/05/30 02:14:24;;;;;;;3.28;2.72;;;16.50;70.70;;;;;;5118557;28;20058;-55
2021/05/30 02:16:50;;;;;;;3.22;2.92;;;16.50;70.70;;;;;;5133016;28;20050;-54
2021/05/30 02:19:16;;;;;;;4.07;2.80;;;16.50;70.80;;;;;;5127283;28;20062;-53
2021/05/30 02:21:46;;;;;;;3.50;3.10;;;16.50;70.80;;;;;;5113544;28;20414;-54
2021/05/30 02:24:13;;;;;;;4.05;2.88;;;16.50;70.80;;;;;;5112604;28;20186;-53
2021/05/30 02:26:39;;;;;;;4.43;2.92;;;16.50;70.70;;;;;;5112882;28;20115;-54
2021/05/30 02:29:06;;;;;;;3.70;2.83;;;16.60;70.90;;;;;;5112332;28;20047;-54
2021/05/30 02:31:33;;;;;;;3.63;3.20;;;16.50;70.80;;;;;;5117225;28;20043;-54
2021/05/30 02:33:59;;;;;;;4.13;2.88;;;16.50;70.80;;;;;;5133749;27;20039;-53
2021/05/30 02:36:26;;;;;;;2.83;2.58;;;16.50;70.80;;;;;;5136641;27;20046;-54
2021/05/30 02:38:52;;;;;;;3.58;2.92;;;16.50;70.80;;;;;;5120150;27;20050;-53
2021/05/30 02:41:18;;;;;;;3.58;3.28;;;16.50;70.80;;;;;;5115962;28;20039;-55
2021/05/30 02:43:44;;;;;;;3.95;3.13;;;16.50;70.80;;;;;;5116839;27;20043;-53
2021/05/30 02:46:10;;;;;;;3.35;3.05;;;16.50;70.80;;;;;;5115953;28;20051;-52
2021/05/30 02:48:38;;;;;;;3.63;2.92;;;16.50;70.80;;;;;;5129420;27;20047;-54
2021/05/30 02:51:04;;;;;;;3.67;3.15;;;16.50;70.80;;;;;;5136044;27;20402;-53
2021/05/30 02:53:31;;;;;;;3.63;3.15;;;16.50;70.80;;;;;;5123836;27;20036;-53
2021/05/30 02:55:58;;;;;;;4.32;3.35;;;16.50;70.80;;;;;;5125429;27;20040;-55
2021/05/30 02:58:25;;;;;;;4.28;3.00;;;16.50;70.80;;;;;;5135619;27;20410;-53
2021/05/30 03:00:50;;;;;;;3.35;3.03;;;16.50;70.80;;;;;;5126533;27;20047;-53
2021/05/30 03:03:16;;;;;;;3.90;2.80;;;16.50;70.80;;;;;;5116386;27;21425;-54
2021/05/30 03:05:42;;;;;;;3.92;3.00;;;16.50;70.80;;;;;;5132577;27;20074;-53
2021/05/30 03:08:07;;;;;;;3.42;2.95;;;16.50;70.80;;;;;;5135469;27;20101;-55
2021/05/30 03:10:33;;;;;;;3.78;2.90;;;16.50;70.80;;;;;;5117352;27;20051;-56
2021/05/30 03:12:59;;;;;;;3.58;2.83;;;16.50;70.80;;;;;;5129519;27;20054;-54
2021/05/30 03:15:26;;;;;;;4.22;3.33;;;16.50;70.90;;;;;;5115130;27;20047;-57
2021/05/30 03:17:52;;;;;;;3.00;2.70;;;16.50;70.90;;;;;;5127947;27;20396;-55
2021/05/30 03:20:18;;;;;;;3.60;2.90;;;16.50;70.80;;;;;;5124050;27;20066;-54
2021/05/30 03:22:44;;;;;;;3.80;3.20;;;16.50;70.90;;;;;;5114947;27;20127;-55
2021/05/30 03:25:11;;;;;;;4.35;2.60;;;16.50;70.90;;;;;;5116059;27;20126;-54
2021/05/30 03:27:37;;;;;;;4.32;3.22;;;16.50;70.90;;;;;;5128172;27;20054;-51
2021/05/30 03:30:04;;;;;;;3.60;3.28;;;16.50;70.90;;;;;;5135455;27;20059;-54
2021/05/30 03:32:30;;;;;;;4.18;3.13;;;16.50;70.90;;;;;;5102850;28;20048;-54
2021/05/30 03:34:57;;;;;;;3.47;2.60;;;16.50;70.90;;;;;;5115071;28;20459;-54
2021/05/30 03:37:22;;;;;;;3.25;2.55;;;16.50;70.90;;;;;;5133186;27;20134;-53
2021/05/30 03:39:49;;;;;;;3.20;2.90;;;16.50;70.90;;;;;;5135319;27;20075;-55
2021/05/30 03:42:23;;;;;;;3.47;3.15;;;16.40;70.80;;;;;;5123859;27;20043;-53
2021/05/30 03:44:49;;;;;;;2.92;2.65;;;16.50;71.50;;;;;;5120833;27;20071;-53
2021/05/30 03:47:15;;;;;;;3.70;2.90;;;16.40;70.80;;;;;;5133507;27;20443;-54
2021/05/30 03:49:41;;;;;;;3.33;2.85;;;16.50;70.90;;;;;;5135243;27;20043;-54
2021/05/30 03:52:08;;;;;;;3.50;2.88;;;16.50;70.90;;;;;;5122665;27;20101;-53
2021/05/30 03:54:33;;;;;;;3.20;2.90;;;16.50;70.90;;;;;;5114637;28;20438;-52
2021/05/30 03:56:59;;;;;;;3.42;2.90;;;16.50;70.90;;;;;;5115620;27;20047;-53
2021/05/30 03:59:26;;;;;;;3.50;3.20;;;16.50;70.90;;;;;;5118189;27;20122;-54
2021/05/30 04:01:52;;;;;;;3.20;2.90;;;16.50;71.60;;;;;;5126925;27;20130;-53
2021/05/30 04:04:17;;;;;;;3.28;2.50;;;16.40;70.90;;;;;;5101084;27;20495;-53
2021/05/30 04:06:43;;;;;;;3.17;2.72;;;16.50;70.90;;;;;;5134526;27;20058;-54
2021/05/30 04:09:09;;;;;;;3.10;2.80;;;16.40;70.90;;;;;;5132020;27;20051;-52
2021/05/30 04:11:35;;;;;;;3.10;2.65;;;16.40;70.90;;;;;;5134809;27;20047;-53
2021/05/30 04:14:00;;;;;;;4.78;2.80;;;16.50;70.90;;;;;;5134398;27;20053;-53
2021/05/30 04:16:26;;;;;;;3.03;2.40;;;16.40;70.90;;;;;;5130858;27;20047;-57
2021/05/30 04:18:52;;;;;;;3.40;2.78;;;16.50;71.00;;;;;;5115294;27;20075;-55
2021/05/30 04:21:18;;;;;;;3.42;2.83;;;16.40;70.90;;;;;;5116527;27;20480;-58
2021/05/30 04:23:44;;;;;;;3.70;3.17;;;16.40;70.90;;;;;;5134349;27;20065;-57
2021/05/30 04:26:10;;;;;;;3.47;2.70;;;16.40;70.90;;;;;;5132695;27;20051;-56
2021/05/30 04:28:36;;;;;;;3.05;2.60;;;16.40;70.90;;;;;;5131972;27;20043;-58
2021/05/30 04:31:02;;;;;;;2.95;2.65;;;16.40;71.00;;;;;;5134706;27;20115;-58
2021/05/30 04:33:28;;;;;;;2.65;2.45;;;16.40;70.90;;;;;;5134784;27;20043;-57
2021/05/30 04:35:54;;;;;;;3.53;2.72;;;16.40;71.00;;;;;;5134460;27;20059;-55
2021/05/30 04:38:20;;;;;;;5.35;2.80;;;16.40;71.00;;;;;;5133766;27;20051;-56
2021/05/30 04:40:47;;;;;;;3.10;2.80;;;16.40;70.90;;;;;;5132591;27;20419;-53
2021/05/30 04:43:13;;;;;;;3.58;2.97;;;16.40;70.90;;;;;;5122167;27;20051;-53
2021/05/30 04:45:39;;;;;;;3.53;2.92;;;16.40;71.00;;;;;;5126833;27;20133;-51
2021/05/30 04:48:05;;;;;;;3.05;2.72;;;16.40;70.90;;;;;;5128498;27;20134;-53
2021/05/30 04:50:31;;;;;;;3.33;3.00;;;16.40;71.00;;;;;;5114910;27;20114;-51
2021/05/30 04:52:57;;;;;;;3.13;2.83;;;16.40;71.00;;;;;;5114903;27;20139;-56
2021/05/30 04:55:23;;;;;;;2.75;2.55;;;16.40;70.90;;;;;;5112299;28;20079;-58
2021/05/30 04:57:48;;;;;;;3.13;2.65;;;16.40;71.00;;;;;;5113060;28;20048;-52
2021/05/30 05:00:16;;;;;;;4.13;2.90;;;16.30;70.90;;;;;;5123024;27;20523;-56
2021/05/30 05:02:42;;;;;;;4.45;2.80;;;16.40;71.00;;;;;;5133779;27;20125;-55
2021/05/30 05:05:12;;;;;;;2.97;2.58;;;16.40;71.00;;;;;;5132034;27;20066;-55
2021/05/30 05:07:40;;;;;;;2.97;2.75;;;16.40;71.00;;;;;;5133759;27;20070;-57
2021/05/30 05:10:07;;;;;;;2.65;2.45;;;16.40;71.00;;;;;;5118629;27;20079;-57
2021/05/30 05:12:34;;;;;;;3.05;2.75;;;16.40;71.00;;;;;;5126103;27;20121;-52
2021/05/30 05:14:59;;;;;;;3.03;2.72;;;16.40;71.00;;;;;;5131641;27;20035;-56
2021/05/30 05:17:25;;;;;;;2.97;2.67;;;16.40;71.00;;;;;;5102687;28;20051;-59
2021/05/30 05:19:51;;;;;;;2.80;2.53;;;16.40;71.00;;;;;;5116441;27;20039;-56
2021/05/30 05:22:16;;;;;;;4.00;2.97;;;16.40;71.00;;;;;;5133540;27;20039;-53
2021/05/30 05:24:42;;;;;;;2.95;2.63;;;16.40;71.00;;;;;;5131176;27;20550;-54
2021/05/30 05:27:08;;;;;;;3.28;2.70;;;16.40;71.00;;;;;;5132924;27;20078;-55
2021/05/30 05:29:35;;;;;;;3.30;2.75;;;16.40;71.10;;;;;;5133358;27;20055;-52
2021/05/30 05:32:01;;;;;;;4.30;3.25;;;16.40;71.00;;;;;;5133177;27;20047;-55
2021/05/30 05:34:26;;;;;;;3.20;2.88;;;16.40;71.00;;;;;;5125118;27;20424;-57
2021/05/30 05:36:52;;;;;;;2.75;2.40;;;16.40;71.10;;;;;;5113771;27;20056;-57
2021/05/30 05:39:18;;;;;;;4.15;2.40;;;16.40;71.00;;;;;;5127759;27;20053;-56
2021/05/30 05:41:44;;;;;;;3.28;2.97;;;16.40;71.00;;;;;;5125915;27;20402;-56
2021/05/30 05:44:10;;;;;;;4.93;3.20;;;16.40;71.00;;;;;;5125151;28;20552;-57
2021/05/30 05:46:36;;;;;;;3.78;2.80;;;16.40;71.70;;;;;;5132815;28;20380;-58
2021/05/30 05:49:02;;;;;;;3.20;2.80;;;16.40;71.10;;;;;;5131590;28;20131;-54
2021/05/30 05:51:28;;;;;;;3.70;2.97;;;16.40;71.00;;;;;;5131248;28;20403;-52
2021/05/30 05:53:54;;;;;;;3.95;2.83;;;16.40;71.00;;;;;;5132912;28;20043;-52
2021/05/30 05:56:19;;;;;;;3.10;2.80;;;16.40;71.70;;;;;;5125169;28;20039;-56
2021/05/30 05:58:45;;;;;;;3.05;2.70;;;16.40;71.10;;;;;;5113401;28;20111;-54
2021/05/30 06:01:12;;;;;;;4.10;2.65;;;16.40;71.00;;;;;;5112166;28;20052;-58
2021/05/30 06:03:38;;;;;;;3.55;2.83;;;16.40;71.00;;;;;;5112040;28;20112;-53
2021/05/30 06:06:04;;;;;;;3.88;2.75;;;16.40;71.00;;;;;;5112746;28;20522;-48
2021/05/30 06:08:31;;;;;;;4.25;3.03;;;16.40;71.00;;;;;;5115234;28;20500;-53
2021/05/30 06:10:57;;;;;;;3.45;3.08;;;16.50;71.10;;;;;;5115976;28;20047;-54
2021/05/30 06:13:23;;;;;;;3.25;2.95;;;16.40;71.00;;;;;;5116176;28;20063;-56
2021/05/30 06:15:49;;;;;;;3.28;2.97;;;16.40;71.00;;;;;;5116399;28;20375;-57
2021/05/30 06:18:16;;;;;;;2.85;2.65;;;16.40;71.00;;;;;;5115358;28;20051;-54
2021/05/30 06:20:46;;;;;;;4.63;3.22;;;16.40;71.00;;;;;;5115422;28;20145;-57
2021/05/30 06:23:12;;;;;;;3.08;2.75;;;16.40;71.00;;;;;;5116329;28;20161;-51
2021/05/30 06:25:40;;;;;;;3.28;2.90;;;16.40;71.00;;;;;;5116207;28;20048;-54
2021/05/30 06:28:06;;;;;;;4.10;3.42;;;16.40;71.00;;;;;;5115678;28;20050;-55
2021/05/30 06:30:34;;;;;;;3.30;2.88;;;16.40;71.00;;;;;;5115642;28;20044;-49
2021/05/30 06:33:14;;;;;;;3.17;2.53;;;16.40;71.00;;;;;;5116091;28;20043;-56
2021/05/30 06:35:42;;;;;;;4.40;3.13;;;16.40;71.10;;;;;;5115627;28;20085;-55
2021/05/30 06:38:10;;;;;;;4.07;3.15;;;16.40;71.10;;;;;;5116275;28;20237;-55
2021/05/30 06:40:36;;;;;;;3.75;2.83;;;16.40;71.00;;;;;;5116400;28;20043;-54
2021/05/30 06:43:03;;;;;;;3.25;2.95;;;16.30;71.00;;;;;;5115932;28;20141;-55
2021/05/30 06:45:32;;;;;;;3.05;2.63;;;16.40;71.00;;;;;;5115879;28;20054;-56
2021/05/30 06:47:59;;;;;;;3.40;2.90;;;16.50;71.10;;;;;;5115490;28;20047;-56
2021/05/30 06:50:27;;;;;;;3.58;2.97;;;16.40;71.00;;;;;;5115383;28;20487;-55
2021/05/30 06:52:53;;;;;;;4.25;2.90;;;16.40;71.00;;;;;;5115561;28;20402;-55
2021/05/30 06:55:21;;;;;;;3.15;2.85;;;16.40;71.70;;;;;;5115922;28;20047;-52
2021/05/30 06:57:46;;;;;;;3.50;3.00;;;16.50;71.00;;;;;;5114857;28;20061;-54
2021/05/30 07:00:13;;;;;;;3.25;2.58;;;16.50;71.00;;;;;;5115135;27;20043;-55
2021/05/30 07:02:39;;;;;;;3.40;3.10;;;16.40;71.00;;;;;;5122378;27;20047;-56
2021/05/30 07:05:06;;;;;;;3.47;3.10;;;16.40;71.00;;;;;;5115515;28;20039;-55
2021/05/30 07:07:32;;;;;;;3.50;3.10;;;16.50;71.70;;;;;;5127523;27;20508;-55
2021/05/30 07:09:58;;;;;;;3.10;2.72;;;16.50;71.00;;;;;;5136092;27;20047;-56
2021/05/30 07:12:25;;;;;;;3.47;2.97;;;16.50;71.00;;;;;;5123616;27;20073;-56
2021/05/30 07:14:51;;;;;;;3.85;3.30;;;16.50;71.00;;;;;;5114775;28;20046;-56
2021/05/30 07:17:17;;;;;;;3.58;3.28;;;16.50;71.00;;;;;;5116919;27;20043;-56
2021/05/30 07:19:46;;;;;;;4.07;3.25;;;16.50;71.00;;;;;;5135116;27;20043;-57
2021/05/30 07:22:12;;;;;;;5.22;3.60;;;16.50;71.00;;;;;;5125025;27;20508;-52
2021/05/30 07:24:38;;;;;;;3.53;3.13;;;16.60;71.10;;;;;;5115225;28;20099;-57
2021/05/30 07:27:05;;;;;;;4.68;3.25;;;16.50;71.00;;;;;;5123386;27;20492;-56
2021/05/30 07:29:31;;;;;;;4.10;3.22;;;16.50;71.00;;;;;;5133438;27;20497;-58
2021/05/30 07:31:56;;;;;;;3.75;2.92;;;16.50;71.60;;;;;;5125763;27;20055;-57
2021/05/30 07:34:22;;;;;;;3.85;2.90;;;16.50;70.90;;;;;;5130357;27;20077;-58
2021/05/30 07:36:48;;;;;;;4.47;3.33;;;16.60;71.00;;;;;;5117561;27;20048;-55
2021/05/30 07:39:14;;;;;;;3.42;2.90;;;16.60;71.00;;;;;;5114704;27;20052;-54
2021/05/30 07:41:40;;;;;;;4.00;3.13;;;16.60;71.00;;;;;;5124061;27;20048;-53
2021/05/30 07:44:06;;;;;;;3.50;2.95;;;16.60;71.00;;;;;;5134557;27;20055;-52
2021/05/30 07:46:32;;;;;;;3.85;2.58;;;16.60;71.00;;;;;;5134152;27;20135;-54
2021/05/30 07:48:57;;;;;;;3.60;2.78;;;16.60;71.00;;;;;;5134848;27;20043;-56
2021/05/30 07:51:30;;;;;;;4.70;2.92;;;16.60;71.00;;;;;;5130783;27;20043;-55
2021/05/30 07:53:56;;;;;;;4.72;2.95;;;16.60;71.00;;;;;;5116080;27;20503;-55
2021/05/30 07:56:22;;;;;;;4.90;3.55;;;16.60;71.00;;;;;;5130793;27;20032;-57
2021/05/30 07:58:48;;;;;;;3.03;2.60;;;16.60;71.00;;;;;;5125570;27;20071;-55
2021/05/30 08:01:14;;;;;;;3.08;2.78;;;16.60;71.00;;;;;;5115302;27;20419;-52
2021/05/30 08:03:39;;;;;;;3.28;2.72;;;16.70;71.00;;;;;;5113315;28;20111;-53
2021/05/30 08:06:05;;;;;;;3.05;2.75;;;16.70;71.00;;;;;;5112266;28;20491;-53
2021/05/30 08:08:31;;;;;;;3.90;2.83;;;16.70;71.00;;;;;;5113641;28;20076;-57
2021/05/30 08:10:57;;;;;;;3.45;3.03;;;16.70;71.00;;;;;;5113685;28;20048;-53
2021/05/30 08:13:22;;;;;;;3.00;2.58;;;16.70;71.00;;;;;;5113601;28;20051;-57
2021/05/30 08:15:48;;;;;;;2.80;2.50;;;16.70;71.00;;;;;;5110900;28;20059;-55
2021/05/30 08:18:14;;;;;;;3.78;2.63;;;16.70;71.00;;;;;;5114172;28;20084;-51
2021/05/30 08:20:40;;;;;;;3.28;2.70;;;16.80;71.00;;;;;;5113454;28;20082;-55
2021/05/30 08:23:06;;;;;;;2.80;2.47;;;16.80;71.00;;;;;;5090225;28;20052;-50
2021/05/30 08:25:32;;;;;;;2.80;2.50;;;16.80;71.00;;;;;;5110331;28;20048;-51
2021/05/30 08:27:58;;;;;;;2.97;2.53;;;16.80;71.00;;;;;;5109746;28;20043;-53
2021/05/30 08:30:24;;;;;;;2.45;2.25;;;16.80;70.90;;;;;;5109865;28;20065;-52
2021/05/30 08:32:50;;;;;;;2.40;2.20;;;16.80;71.50;;;;;;5109501;28;20047;-51
2021/05/30 08:35:16;;;;;;;3.25;2.45;;;16.80;70.90;;;;;;5110200;28;20151;-49
2021/05/30 08:37:44;;;;;;;3.15;2.35;;;16.80;70.80;;;;;;5109758;28;20048;-54
2021/05/30 08:40:17;;;;;;;2.30;2.10;;;16.80;70.80;;;;;;5109411;28;20045;-52
2021/05/30 08:42:46;;;;;;;2.90;2.20;;;16.90;70.80;;;;;;5109592;28;20050;-56
2021/05/30 08:45:14;;;;;;;2.75;2.30;;;16.90;70.70;;;;;;5109567;28;20066;-55
2021/05/30 08:47:40;;;;;;;2.35;2.00;;;16.90;70.70;;;;;;5109800;28;20104;-52
2021/05/30 08:50:06;;;;;;;2.28;2.03;;;17.00;70.70;;;;;;5109482;28;20055;-57
2021/05/30 08:52:33;;;;;;;3.10;2.58;;;17.00;70.70;;;;;;5109581;28;20046;-54
2021/05/30 08:55:05;;;;;;;2.35;2.15;;;17.00;70.60;;;;;;5109460;28;20047;-53
2021/05/30 08:57:31;;;;;;;2.58;2.22;;;17.00;70.70;;;;;;5109764;28;20051;-54
2021/05/30 09:00:07;;;;;;;2.50;2.30;;;17.00;70.60;;;;;;5100229;28;20118;-54
2021/05/30 09:02:33;;;;;;;2.30;2.10;;;17.10;70.60;;;;;;5124116;27;20131;-55
2021/05/30 09:05:05;;;;;;;2.20;2.00;;;17.10;70.60;;;;;;5129889;27;20050;-52
2021/05/30 09:07:43;;;;;;;2.08;1.88;;;17.10;70.50;;;;;;5132797;27;20096;-55
2021/05/30 09:10:18;;;;;;;2.30;1.90;;;17.10;70.50;;;;;;5132979;27;20047;-54
2021/05/30 09:12:44;;;;;;;2.60;1.80;;;17.10;70.50;;;;;;5124388;27;20454;-56
2021/05/30 09:15:27;;;;;;;2.22;2.03;;;17.10;70.50;;;;;;5133339;27;20130;-55
2021/05/30 09:18:15;;;;;;;2.22;2.00;;;17.20;70.50;;;;;;5132805;27;20043;-53
2021/05/30 09:21:12;;;;;;;2.47;2.10;;;17.20;70.40;;;;;;5133066;27;20506;-48
2021/05/30 09:23:45;;;;;;;2.67;1.90;;;17.20;70.40;;;;;;5068842;28;20091;-52
2021/05/30 09:26:21;;;;;;;2.28;1.90;;;17.20;70.40;;;;;;5069295;28;20045;-54
2021/05/30 09:29:12;;;;;;;2.30;2.10;;;17.20;70.30;;;;;;5069612;28;20060;-47
2021/05/30 09:32:13;;;;;;;2.22;1.92;;;17.20;70.30;;;;;;5069680;28;20071;-49
2021/05/30 09:34:41;;;;;;;2.53;2.17;;;17.30;70.30;;;;;;5049501;28;20061;-46
2021/05/30 09:37:09;;;;;;;2.03;1.92;;;17.30;70.20;;;;;;5049620;28;20373;-47
2021/05/30 09:39:40;;;;;;;2.22;1.88;;;17.30;70.20;;;;;;5049550;28;20045;-46
2021/05/30 09:42:25;;;;;;;2.58;2.08;;;17.30;70.20;;;;;;5031341;28;20049;-50
2021/05/30 09:45:04;;;;;;;2.40;2.20;;;17.30;70.10;;;;;;5049210;28;20055;-48
2021/05/30 09:47:38;;;;;;;2.17;1.70;;;17.30;70.00;;;;;;5049583;28;20048;-48
2021/05/30 09:50:06;;;;;;;2.28;1.88;;;17.40;70.10;;;;;;5049048;28;20057;-54
2021/05/30 09:52:43;;;;;;;1.80;1.70;;;17.40;70.00;;;;;;5048981;28;20071;-60
2021/05/30 09:55:29;;;;;;;2.22;1.88;;;17.40;70.00;;;;;;5049195;28;20059;-73
2021/05/30 09:58:15;;;;;;;2.38;2.20;;;17.50;70.00;;;;;;5049092;28;20501;-67
2021/05/30 10:00:43;;;;;;;2.10;1.67;;;17.40;69.90;;;;;;5055037;28;20036;-50
2021/05/30 10:03:09;;;;;;;2.05;1.65;;;17.50;69.90;;;;;;5064360;28;20084;-53
2021/05/30 10:05:36;;;;;;;2.00;1.83;;;17.50;69.90;;;;;;5064395;28;20052;-52
2021/05/30 10:08:02;;;;;;;2.08;1.88;;;17.40;69.80;;;;;;5079952;28;20047;-58
2021/05/30 10:10:30;;;;;;;1.83;1.60;;;17.50;69.80;;;;;;5128836;28;20058;-63
2021/05/30 10:12:55;;;;;;;2.17;1.60;;;17.60;69.80;;;;;;5128666;28;20058;-64
2021/05/30 10:15:22;;;;;;;2.40;1.80;;;17.60;69.80;;;;;;5128187;28;20446;-53
2021/05/30 10:17:52;;;;;;;1.60;1.50;;;17.60;69.80;;;;;;5128961;28;20054;-59
2021/05/30 10:20:23;;;;;;;1.70;1.52;;;17.60;69.70;;;;;;5130909;28;20043;-47
2021/05/30 10:22:52;;;;;;;2.00;1.70;;;17.60;69.70;;;;;;5132223;28;20047;-53
2021/05/30 10:25:29;;;;;;;2.00;1.80;;;17.60;69.60;;;;;;5114216;28;20043;-51
2021/05/30 10:28:17;;;;;;;1.83;1.60;;;17.70;69.60;;;;;;5132183;28;20054;-53
2021/05/30 10:30:48;;;;;;;1.85;1.75;;;17.70;69.50;;;;;;5132413;28;20119;-54
2021/05/30 10:33:18;;;;;;;2.15;1.77;;;17.70;69.50;;;;;;5132092;28;20483;-49
2021/05/30 10:35:47;;;;;;;2.05;1.65;;;17.70;69.50;;;;;;5132339;28;20047;-52
2021/05/30 10:38:35;;;;;;;1.80;1.60;;;17.70;69.40;;;;;;5131914;28;20043;-53
2021/05/30 10:41:14;;;;;;;1.60;1.50;;;17.70;69.30;;;;;;5132333;28;20051;-68
2021/05/30 10:43:41;;;;;;;1.35;1.25;;;17.70;69.30;;;;;;5132112;28;20047;-51
2021/05/30 10:46:07;;;;;;;2.10;1.55;;;17.80;69.30;;;;;;5124156;28;20044;-72
2021/05/30 10:48:34;;;;;;;2.40;1.80;;;17.80;69.30;;;;;;5128227;28;20078;-52
2021/05/30 10:51:33;;;;;;;1.52;1.42;;;17.80;69.20;;;;;;5131775;28;20047;-47
2021/05/30 10:54:10;;;;;;;1.70;1.50;;;17.80;69.20;;;;;;5134310;27;20043;-59
2021/05/30 10:56:39;;;;;;;1.70;1.60;;;17.90;69.20;;;;;;5135851;27;20043;-48
2021/05/30 10:59:11;;;;;;;1.70;1.60;;;17.90;69.20;;;;;;5135372;27;20043;-51
2021/05/30 11:01:40;;;;;;;2.28;1.63;;;17.90;69.10;;;;;;5132917;27;20158;-63
2021/05/30 11:04:28;;;;;;;1.70;1.60;;;17.90;69.10;;;;;;5135706;27;20051;-70
2021/05/30 11:06:56;;;;;;;1.77;1.58;;;17.90;69.70;;;;;;5135438;27;20418;-58
2021/05/30 11:09:23;;;;;;;1.95;1.70;;;17.90;69.00;;;;;;5132645;27;20043;-50
2021/05/30 11:12:27;;;;;;;2.13;1.60;;;18.00;69.00;;;;;;5115175;28;20055;-51
2021/05/30 11:15:08;;;;;;;1.50;1.40;;;18.00;68.90;;;;;;5115192;28;20092;-53
2021/05/30 11:17:45;;;;;;;1.60;1.50;;;18.00;68.90;;;;;;5115587;28;20055;-59
2021/05/30 11:20:14;;;;;;;2.00;1.80;;;18.10;68.90;;;;;;5115529;28;20043;-54
2021/05/30 11:23:00;;;;;;;1.92;1.42;;;18.10;68.80;;;;;;5115151;27;20070;-65
2021/05/30 11:25:45;;;;;;;2.55;1.70;;;18.10;68.80;;;;;;5115603;28;20048;-54
2021/05/30 11:28:13;;;;;;;1.47;1.33;;;18.10;68.80;;;;;;5115456;28;20101;-55
2021/05/30 11:30:45;;;;;;;1.30;1.20;;;18.10;68.80;;;;;;5114911;28;20054;-59
2021/05/30 11:33:15;;;;;;;1.58;1.48;;;18.10;68.70;;;;;;5114983;28;20043;-60
2021/05/30 11:35:42;;;;;;;1.90;1.52;;;18.10;68.80;;;;;;5106814;28;20040;-54
2021/05/30 11:38:08;;;;;;;2.20;1.60;;;18.20;68.60;;;;;;5131741;27;20043;-53
2021/05/30 11:40:35;;;;;;;2.17;1.50;;;18.20;68.60;;;;;;5114514;27;20142;-53
2021/05/30 11:43:18;;;;;;;2.15;1.50;;;18.20;68.60;;;;;;5115089;28;20047;-54
2021/05/30 11:45:46;;;;;;;1.60;1.50;;;18.20;68.50;;;;;;5114573;28;20055;-77
2021/05/30 11:48:17;;;;;;;2.38;1.50;;;18.20;68.50;;;;;;5114793;28;20044;-76
2021/05/30 11:50:53;;;;;;;1.80;1.70;;;18.30;68.50;;;;;;5114859;28;20399;-57
2021/05/30 11:53:29;;;;;;;;;;;18.30;68.50;;;;;;5114755;28;20051;-53
2021/05/30 11:55:56;;;;;;;2.15;1.60;;;18.20;68.40;;;;;;5114737;28;19949;-53
2021/05/30 11:58:22;;;;;;;1.52;1.27;;;18.30;68.50;;;;;;5114323;28;20130;-60
2021/05/30 12:01:00;;;;;;;1.77;1.67;;;18.30;68.40;;;;;;5115436;27;20139;-56
2021/05/30 12:03:26;;;;;;;1.83;1.67;;;18.30;68.40;;;;;;5134856;27;20051;-69
2021/05/30 12:06:02;;;;;;;1.50;1.35;;;18.30;68.30;;;;;;5134580;27;20087;-66
2021/05/30 12:08:29;;;;;;;1.48;1.38;;;18.30;68.30;;;;;;5134792;27;20050;-55
2021/05/30 12:10:58;;;;;;;1.42;1.33;;;18.30;68.30;;;;;;5134888;27;20046;-56
2021/05/30 12:13:25;;;;;;;1.85;1.60;;;18.40;68.30;;;;;;5134995;27;20055;-67
2021/05/30 12:15:51;;;;;;;1.70;1.50;;;18.30;68.20;;;;;;5134719;27;20475;-72
2021/05/30 12:18:16;;;;;;;2.28;1.95;;;18.40;68.20;;;;;;5135137;27;20050;-56
2021/05/30 12:20:44;;;;;;;2.35;1.42;;;18.40;68.20;;;;;;5134902;27;20047;-67
2021/05/30 12:23:18;;;;;;;2.65;1.63;;;18.40;68.20;;;;;;5134295;27;20104;-62
2021/05/30 12:25:55;;;;;;;1.40;1.25;;;18.50;68.20;;;;;;5134579;27;20054;-62
2021/05/30 12:28:23;;;;;;;2.05;1.35;;;18.50;68.10;;;;;;5134796;27;20051;-56
2021/05/30 12:30:51;;;;;;;1.85;1.60;;;18.50;68.20;;;;;;5134884;27;20066;-55
2021/05/30 12:33:19;;;;;;;10.52;5.25;;;18.50;68.10;;;;;;5134936;27;20050;-50
2021/05/30 12:35:48;;;;;;;4.65;2.85;;;18.50;68.00;;;;;;5134609;27;20043;-48
2021/05/30 12:38:18;;;;;;;7.93;4.38;;;18.40;67.90;;;;;;5133767;27;20103;-48
2021/05/30 12:40:45;;;;;;;9.07;4.93;;;18.50;67.90;;;;;;5134235;27;20054;-46
2021/05/30 12:43:11;;;;;;;8.38;4.65;;;18.50;67.90;;;;;;5134376;27;20043;-49
2021/05/30 12:45:59;;;;;;;7.45;4.45;;;18.50;67.90;;;;;;5134531;27;20082;-50
2021/05/30 12:48:47;;;;;;;7.88;4.50;;;18.60;67.90;;;;;;5134280;27;20494;-48
2021/05/30 12:51:15;;;;;;;6.63;4.22;;;18.60;67.90;;;;;;5134170;27;20054;-44
2021/05/30 12:53:42;;;;;;;6.13;4.32;;;18.60;68.60;;;;;;5133832;27;20062;-49
2021/05/30 12:56:16;;;;;;;7.60;4.20;;;18.60;67.90;;;;;;5134154;27;20047;-48